sensor_id;sensor_type;location;lat;lon;timestamp;P1;durP1;ratioP1;P2;durP2;ratioP2
11761;SDS011;5938;47.098;15.474;2023-07-20T00:01:24;6.10;;;5.07;;
11761;SDS011;5938;47.098;15.474;2023-07-20T00:05:31;5.63;;;4.83;;
11761;SDS011;5938;47.098;15.474;2023-07-20T00:09:35;7.50;;;6.17;;
11761;SDS011;5938;47.098;15.474;2023-07-20T00:13:41;8.03;;;4.83;;
11761;SDS011;5938;47.098;15.474;2023-07-20T00:17:45;5.10;;;4.40;;
11761;SDS011;5938;47.098;15.474;2023-07-20T00:21:48;7.20;;;5.03;;
11761;SDS011;5938;47.098;15.474;2023-07-20T00:25:52;7.20;;;5.03;;
11761;SDS011;5938;47.098;15.474;2023-07-20T00:29:58;5.97;;;5.03;;
11761;SDS011;5938;47.098;15.474;2023-07-20T00:34:04;5.00;;;4.50;;
11761;SDS011;5938;47.098;15.474;2023-07-20T00:38:09;8.70;;;5.37;;
11761;SDS011;5938;47.098;15.474;2023-07-20T00:42:15;5.13;;;4.70;;
11761;SDS011;5938;47.098;15.474;2023-07-20T00:46:21;6.20;;;4.03;;
11761;SDS011;5938;47.098;15.474;2023-07-20T00:50:26;4.83;;;4.33;;
11761;SDS011;5938;47.098;15.474;2023-07-20T00:54:33;4.47;;;4.07;;
11761;SDS011;5938;47.098;15.474;2023-07-20T00:58:38;5.03;;;4.53;;
11761;SDS011;5938;47.098;15.474;2023-07-20T01:02:42;7.13;;;4.70;;
11761;SDS011;5938;47.098;15.474;2023-07-20T01:06:48;5.00;;;4.43;;
11761;SDS011;5938;47.098;15.474;2023-07-20T01:11:02;5.47;;;4.60;;
11761;SDS011;5938;47.098;15.474;2023-07-20T01:15:15;5.63;;;5.13;;
11761;SDS011;5938;47.098;15.474;2023-07-20T01:19:20;5.97;;;5.10;;
11761;SDS011;5938;47.098;15.474;2023-07-20T01:23:30;8.20;;;5.10;;
11761;SDS011;5938;47.098;15.474;2023-07-20T01:28:02;5.63;;;5.13;;
11761;SDS011;5938;47.098;15.474;2023-07-20T01:32:26;7.53;;;5.37;;
11761;SDS011;5938;47.098;15.474;2023-07-20T01:36:33;7.77;;;4.83;;
11761;SDS011;5938;47.098;15.474;2023-07-20T01:40:39;7.40;;;5.33;;
11761;SDS011;5938;47.098;15.474;2023-07-20T01:44:44;5.23;;;4.57;;
11761;SDS011;5938;47.098;15.474;2023-07-20T01:48:49;5.80;;;4.57;;
11761;SDS011;5938;47.098;15.474;2023-07-20T01:52:57;6.50;;;4.83;;
11761;SDS011;5938;47.098;15.474;2023-07-20T01:57:03;5.27;;;4.77;;
11761;SDS011;5938;47.098;15.474;2023-07-20T02:01:08;5.47;;;4.90;;
11761;SDS011;5938;47.098;15.474;2023-07-20T02:05:16;5.80;;;5.10;;
11761;SDS011;5938;47.098;15.474;2023-07-20T02:09:20;6.47;;;5.20;;
11761;SDS011;5938;47.098;15.474;2023-07-20T02:13:23;6.30;;;4.73;;
11761;SDS011;5938;47.098;15.474;2023-07-20T02:17:27;4.90;;;4.37;;
11761;SDS011;5938;47.098;15.474;2023-07-20T02:21:33;5.13;;;4.30;;
11761;SDS011;5938;47.098;15.474;2023-07-20T02:25:36;11.20;;;5.27;;
11761;SDS011;5938;47.098;15.474;2023-07-20T02:29:41;8.00;;;4.60;;
11761;SDS011;5938;47.098;15.474;2023-07-20T02:33:44;5.60;;;5.10;;
11761;SDS011;5938;47.098;15.474;2023-07-20T02:37:49;7.17;;;5.93;;
11761;SDS011;5938;47.098;15.474;2023-07-20T02:41:53;5.13;;;4.63;;
11761;SDS011;5938;47.098;15.474;2023-07-20T02:45:57;5.37;;;4.80;;
11761;SDS011;5938;47.098;15.474;2023-07-20T02:50:02;5.97;;;5.43;;
11761;SDS011;5938;47.098;15.474;2023-07-20T02:54:07;4.90;;;4.40;;
11761;SDS011;5938;47.098;15.474;2023-07-20T02:58:11;6.03;;;5.23;;
11761;SDS011;5938;47.098;15.474;2023-07-20T03:02:15;7.30;;;5.03;;
11761;SDS011;5938;47.098;15.474;2023-07-20T03:06:24;7.57;;;5.07;;
11761;SDS011;5938;47.098;15.474;2023-07-20T03:10:29;5.20;;;4.70;;
11761;SDS011;5938;47.098;15.474;2023-07-20T03:14:33;5.50;;;4.93;;
11761;SDS011;5938;47.098;15.474;2023-07-20T03:18:37;5.27;;;4.77;;
11761;SDS011;5938;47.098;15.474;2023-07-20T03:22:41;7.63;;;4.93;;
11761;SDS011;5938;47.098;15.474;2023-07-20T03:26:47;8.93;;;5.07;;
11761;SDS011;5938;47.098;15.474;2023-07-20T03:30:52;5.70;;;4.53;;
11761;SDS011;5938;47.098;15.474;2023-07-20T03:34:57;8.87;;;5.00;;
11761;SDS011;5938;47.098;15.474;2023-07-20T03:39:01;5.40;;;4.40;;
11761;SDS011;5938;47.098;15.474;2023-07-20T03:43:06;5.30;;;4.80;;
11761;SDS011;5938;47.098;15.474;2023-07-20T03:47:10;5.27;;;4.10;;
11761;SDS011;5938;47.098;15.474;2023-07-20T03:51:13;4.47;;;4.07;;
11761;SDS011;5938;47.098;15.474;2023-07-20T03:55:17;4.90;;;3.53;;
11761;SDS011;5938;47.098;15.474;2023-07-20T03:59:24;5.80;;;4.80;;
11761;SDS011;5938;47.098;15.474;2023-07-20T04:03:27;4.03;;;3.53;;
11761;SDS011;5938;47.098;15.474;2023-07-20T04:07:32;5.30;;;4.00;;
11761;SDS011;5938;47.098;15.474;2023-07-20T04:11:35;8.40;;;4.73;;
11761;SDS011;5938;47.098;15.474;2023-07-20T04:15:40;5.90;;;4.60;;
11761;SDS011;5938;47.098;15.474;2023-07-20T04:19:44;6.30;;;3.93;;
11761;SDS011;5938;47.098;15.474;2023-07-20T04:23:48;8.83;;;4.50;;
11761;SDS011;5938;47.098;15.474;2023-07-20T04:27:51;6.90;;;3.90;;
11761;SDS011;5938;47.098;15.474;2023-07-20T04:31:56;6.50;;;4.20;;
11761;SDS011;5938;47.098;15.474;2023-07-20T04:36:00;7.23;;;4.27;;
11761;SDS011;5938;47.098;15.474;2023-07-20T04:40:04;5.10;;;4.23;;
11761;SDS011;5938;47.098;15.474;2023-07-20T04:44:09;6.10;;;5.30;;
11761;SDS011;5938;47.098;15.474;2023-07-20T04:48:14;8.50;;;4.33;;
11761;SDS011;5938;47.098;15.474;2023-07-20T04:52:18;3.97;;;3.50;;
11761;SDS011;5938;47.098;15.474;2023-07-20T04:56:30;5.00;;;4.03;;
11761;SDS011;5938;47.098;15.474;2023-07-20T05:00:35;6.17;;;3.93;;
11761;SDS011;5938;47.098;15.474;2023-07-20T05:04:42;6.33;;;4.43;;
11761;SDS011;5938;47.098;15.474;2023-07-20T05:08:45;4.10;;;3.37;;
11761;SDS011;5938;47.098;15.474;2023-07-20T05:12:49;4.30;;;3.90;;
11761;SDS011;5938;47.098;15.474;2023-07-20T05:16:52;5.50;;;4.50;;
11761;SDS011;5938;47.098;15.474;2023-07-20T05:20:57;4.93;;;4.33;;
11761;SDS011;5938;47.098;15.474;2023-07-20T05:25:01;8.63;;;4.43;;
11761;SDS011;5938;47.098;15.474;2023-07-20T05:29:05;4.70;;;4.17;;
11761;SDS011;5938;47.098;15.474;2023-07-20T05:33:08;4.20;;;3.80;;
11761;SDS011;5938;47.098;15.474;2023-07-20T05:37:13;4.83;;;4.00;;
11761;SDS011;5938;47.098;15.474;2023-07-20T05:41:17;5.07;;;3.90;;
11761;SDS011;5938;47.098;15.474;2023-07-20T05:45:20;4.60;;;4.20;;
11761;SDS011;5938;47.098;15.474;2023-07-20T05:49:24;5.17;;;4.50;;
11761;SDS011;5938;47.098;15.474;2023-07-20T05:53:30;7.00;;;5.00;;
11761;SDS011;5938;47.098;15.474;2023-07-20T05:57:33;6.07;;;5.10;;
11761;SDS011;5938;47.098;15.474;2023-07-20T06:01:38;6.67;;;4.77;;
11761;SDS011;5938;47.098;15.474;2023-07-20T06:05:41;6.40;;;5.03;;
11761;SDS011;5938;47.098;15.474;2023-07-20T06:09:47;4.00;;;3.70;;
11761;SDS011;5938;47.098;15.474;2023-07-20T06:13:50;4.93;;;4.20;;
11761;SDS011;5938;47.098;15.474;2023-07-20T06:17:54;5.17;;;4.40;;
11761;SDS011;5938;47.098;15.474;2023-07-20T06:22:00;4.53;;;3.90;;
11761;SDS011;5938;47.098;15.474;2023-07-20T06:26:05;4.63;;;4.13;;
11761;SDS011;5938;47.098;15.474;2023-07-20T06:30:09;4.10;;;3.70;;
11761;SDS011;5938;47.098;15.474;2023-07-20T06:34:16;6.10;;;3.80;;
11761;SDS011;5938;47.098;15.474;2023-07-20T06:38:23;5.33;;;4.37;;
11761;SDS011;5938;47.098;15.474;2023-07-20T06:42:32;4.23;;;3.73;;
11761;SDS011;5938;47.098;15.474;2023-07-20T06:46:38;5.07;;;4.57;;
11761;SDS011;5938;47.098;15.474;2023-07-20T06:50:42;4.87;;;4.37;;
11761;SDS011;5938;47.098;15.474;2023-07-20T06:54:46;4.78;;;3.97;;
11761;SDS011;5938;47.098;15.474;2023-07-20T06:58:51;7.20;;;4.80;;
11761;SDS011;5938;47.098;15.474;2023-07-20T07:02:54;6.50;;;5.10;;
11761;SDS011;5938;47.098;15.474;2023-07-20T07:06:58;4.43;;;4.03;;
11761;SDS011;5938;47.098;15.474;2023-07-20T07:11:02;4.40;;;3.87;;
11761;SDS011;5938;47.098;15.474;2023-07-20T07:15:07;4.83;;;4.00;;
11761;SDS011;5938;47.098;15.474;2023-07-20T07:19:12;5.47;;;4.30;;
11761;SDS011;5938;47.098;15.474;2023-07-20T07:23:16;4.80;;;3.80;;
11761;SDS011;5938;47.098;15.474;2023-07-20T07:27:19;3.87;;;3.47;;
11761;SDS011;5938;47.098;15.474;2023-07-20T07:31:25;4.67;;;4.27;;
11761;SDS011;5938;47.098;15.474;2023-07-20T07:35:31;4.60;;;3.90;;
11761;SDS011;5938;47.098;15.474;2023-07-20T07:39:34;5.53;;;5.03;;
11761;SDS011;5938;47.098;15.474;2023-07-20T07:43:38;4.73;;;4.30;;
11761;SDS011;5938;47.098;15.474;2023-07-20T07:47:43;4.57;;;4.17;;
11761;SDS011;5938;47.098;15.474;2023-07-20T07:51:46;4.90;;;3.93;;
11761;SDS011;5938;47.098;15.474;2023-07-20T07:55:50;3.67;;;3.30;;
11761;SDS011;5938;47.098;15.474;2023-07-20T07:59:54;4.73;;;3.80;;
11761;SDS011;5938;47.098;15.474;2023-07-20T08:04:06;4.43;;;3.60;;
11761;SDS011;5938;47.098;15.474;2023-07-20T08:08:09;6.53;;;4.30;;
11761;SDS011;5938;47.098;15.474;2023-07-20T08:12:13;5.50;;;3.97;;
11761;SDS011;5938;47.098;15.474;2023-07-20T08:16:19;3.80;;;3.23;;
11761;SDS011;5938;47.098;15.474;2023-07-20T08:20:25;4.17;;;3.60;;
11761;SDS011;5938;47.098;15.474;2023-07-20T08:24:28;4.00;;;3.60;;
11761;SDS011;5938;47.098;15.474;2023-07-20T08:28:32;4.13;;;3.73;;
11761;SDS011;5938;47.098;15.474;2023-07-20T08:32:36;5.60;;;3.80;;
11761;SDS011;5938;47.098;15.474;2023-07-20T08:36:41;5.03;;;4.00;;
11761;SDS011;5938;47.098;15.474;2023-07-20T08:40:45;3.50;;;3.20;;
11761;SDS011;5938;47.098;15.474;2023-07-20T08:44:49;4.17;;;3.70;;
11761;SDS011;5938;47.098;15.474;2023-07-20T08:48:55;3.50;;;3.20;;
11761;SDS011;5938;47.098;15.474;2023-07-20T08:53:01;6.50;;;3.50;;
11761;SDS011;5938;47.098;15.474;2023-07-20T08:57:06;4.97;;;4.33;;
11761;SDS011;5938;47.098;15.474;2023-07-20T09:01:10;5.13;;;3.17;;
11761;SDS011;5938;47.098;15.474;2023-07-20T09:05:14;7.20;;;3.50;;
11761;SDS011;5938;47.098;15.474;2023-07-20T09:09:20;2.70;;;2.50;;
11761;SDS011;5938;47.098;15.474;2023-07-20T09:13:26;6.33;;;3.00;;
11761;SDS011;5938;47.098;15.474;2023-07-20T09:17:34;2.97;;;2.77;;
11761;SDS011;5938;47.098;15.474;2023-07-20T09:21:38;5.03;;;3.23;;
11761;SDS011;5938;47.098;15.474;2023-07-20T09:25:43;3.60;;;3.30;;
11761;SDS011;5938;47.098;15.474;2023-07-20T09:29:47;4.20;;;3.00;;
11761;SDS011;5938;47.098;15.474;2023-07-20T09:33:52;3.27;;;2.97;;
11761;SDS011;5938;47.098;15.474;2023-07-20T09:37:59;3.50;;;3.20;;
11761;SDS011;5938;47.098;15.474;2023-07-20T09:42:08;3.47;;;3.17;;
11761;SDS011;5938;47.098;15.474;2023-07-20T09:46:16;3.50;;;3.20;;
11761;SDS011;5938;47.098;15.474;2023-07-20T09:50:24;2.90;;;2.70;;
11761;SDS011;5938;47.098;15.474;2023-07-20T09:54:28;4.03;;;3.43;;
11761;SDS011;5938;47.098;15.474;2023-07-20T09:58:34;4.97;;;3.93;;
11761;SDS011;5938;47.098;15.474;2023-07-20T10:02:41;4.87;;;3.40;;
11761;SDS011;5938;47.098;15.474;2023-07-20T10:06:46;3.93;;;3.53;;
11761;SDS011;5938;47.098;15.474;2023-07-20T10:10:52;4.93;;;4.53;;
11761;SDS011;5938;47.098;15.474;2023-07-20T10:14:59;4.67;;;4.20;;
11761;SDS011;5938;47.098;15.474;2023-07-20T10:19:15;5.20;;;4.20;;
11761;SDS011;5938;47.098;15.474;2023-07-20T10:23:27;5.50;;;4.40;;
11761;SDS011;5938;47.098;15.474;2023-07-20T10:27:38;5.77;;;4.70;;
11761;SDS011;5938;47.098;15.474;2023-07-20T10:31:44;5.90;;;4.93;;
11761;SDS011;5938;47.098;15.474;2023-07-20T10:35:51;5.47;;;4.97;;
11761;SDS011;5938;47.098;15.474;2023-07-20T10:39:55;7.37;;;4.40;;
11761;SDS011;5938;47.098;15.474;2023-07-20T10:44:00;5.47;;;4.97;;
11761;SDS011;5938;47.098;15.474;2023-07-20T10:48:12;9.10;;;4.63;;
11761;SDS011;5938;47.098;15.474;2023-07-20T10:52:18;4.70;;;4.30;;
11761;SDS011;5938;47.098;15.474;2023-07-20T10:56:22;4.83;;;4.43;;
11761;SDS011;5938;47.098;15.474;2023-07-20T11:00:28;4.00;;;3.70;;
11761;SDS011;5938;47.098;15.474;2023-07-20T11:04:41;5.00;;;4.60;;
11761;SDS011;5938;47.098;15.474;2023-07-20T11:08:46;4.43;;;4.10;;
11761;SDS011;5938;47.098;15.474;2023-07-20T11:17:28;3.87;;;3.57;;
11761;SDS011;5938;47.098;15.474;2023-07-20T11:21:36;6.30;;;4.37;;
11761;SDS011;5938;47.098;15.474;2023-07-20T11:26:01;4.30;;;3.90;;
11761;SDS011;5938;47.098;15.474;2023-07-20T11:30:14;4.80;;;3.80;;
11761;SDS011;5938;47.098;15.474;2023-07-20T11:34:19;4.27;;;3.87;;
11761;SDS011;5938;47.098;15.474;2023-07-20T11:38:25;3.93;;;3.57;;
11761;SDS011;5938;47.098;15.474;2023-07-20T11:42:28;3.93;;;3.53;;
11761;SDS011;5938;47.098;15.474;2023-07-20T11:46:35;4.13;;;3.73;;
11761;SDS011;5938;47.098;15.474;2023-07-20T11:50:39;4.30;;;3.90;;
11761;SDS011;5938;47.098;15.474;2023-07-20T11:54:44;4.23;;;3.83;;
11761;SDS011;5938;47.098;15.474;2023-07-20T11:58:50;4.50;;;4.10;;
11761;SDS011;5938;47.098;15.474;2023-07-20T12:02:57;4.47;;;4.07;;
11761;SDS011;5938;47.098;15.474;2023-07-20T12:07:00;4.67;;;4.27;;
11761;SDS011;5938;47.098;15.474;2023-07-20T12:11:05;3.50;;;3.20;;
11761;SDS011;5938;47.098;15.474;2023-07-20T12:15:15;4.20;;;3.80;;
11761;SDS011;5938;47.098;15.474;2023-07-20T12:19:19;4.10;;;3.70;;
11761;SDS011;5938;47.098;15.474;2023-07-20T12:23:24;3.87;;;3.47;;
11761;SDS011;5938;47.098;15.474;2023-07-20T12:27:32;3.67;;;3.33;;
11761;SDS011;5938;47.098;15.474;2023-07-20T12:31:37;3.47;;;3.17;;
11761;SDS011;5938;47.098;15.474;2023-07-20T12:35:41;5.40;;;3.40;;
11761;SDS011;5938;47.098;15.474;2023-07-20T12:39:45;4.97;;;3.10;;
11761;SDS011;5938;47.098;15.474;2023-07-20T12:43:51;2.23;;;2.03;;
11761;SDS011;5938;47.098;15.474;2023-07-20T12:47:55;2.33;;;2.20;;
11761;SDS011;5938;47.098;15.474;2023-07-20T12:51:58;2.50;;;2.30;;
11761;SDS011;5938;47.098;15.474;2023-07-20T12:56:02;3.10;;;2.07;;
11761;SDS011;5938;47.098;15.474;2023-07-20T13:00:11;7.80;;;3.83;;
11761;SDS011;5938;47.098;15.474;2023-07-20T13:04:16;2.20;;;2.00;;
11761;SDS011;5938;47.098;15.474;2023-07-20T13:08:20;2.60;;;2.40;;
11761;SDS011;5938;47.098;15.474;2023-07-20T13:12:27;2.90;;;2.60;;
11761;SDS011;5938;47.098;15.474;2023-07-20T13:16:34;3.10;;;2.90;;
11761;SDS011;5938;47.098;15.474;2023-07-20T13:20:38;3.37;;;3.07;;
11761;SDS011;5938;47.098;15.474;2023-07-20T13:24:44;3.57;;;3.10;;
11761;SDS011;5938;47.098;15.474;2023-07-20T13:28:51;3.63;;;2.50;;
11761;SDS011;5938;47.098;15.474;2023-07-20T13:32:57;4.17;;;2.90;;
11761;SDS011;5938;47.098;15.474;2023-07-20T13:37:07;3.67;;;3.03;;
11761;SDS011;5938;47.098;15.474;2023-07-20T13:41:14;3.03;;;2.67;;
11761;SDS011;5938;47.098;15.474;2023-07-20T13:45:19;3.10;;;2.57;;
11761;SDS011;5938;47.098;15.474;2023-07-20T13:49:26;8.03;;;3.20;;
11761;SDS011;5938;47.098;15.474;2023-07-20T13:53:37;3.10;;;2.80;;
11761;SDS011;5938;47.098;15.474;2023-07-20T13:57:43;3.87;;;3.00;;
11761;SDS011;5938;47.098;15.474;2023-07-20T14:01:47;3.00;;;2.77;;
11761;SDS011;5938;47.098;15.474;2023-07-20T14:05:53;2.90;;;2.60;;
11761;SDS011;5938;47.098;15.474;2023-07-20T14:09:59;3.30;;;2.57;;
11761;SDS011;5938;47.098;15.474;2023-07-20T14:14:06;3.73;;;3.13;;
11761;SDS011;5938;47.098;15.474;2023-07-20T14:18:09;3.40;;;3.10;;
11761;SDS011;5938;47.098;15.474;2023-07-20T14:22:17;3.90;;;3.50;;
11761;SDS011;5938;47.098;15.474;2023-07-20T14:26:20;3.50;;;3.20;;
11761;SDS011;5938;47.098;15.474;2023-07-20T14:30:24;7.20;;;3.40;;
11761;SDS011;5938;47.098;15.474;2023-07-20T14:34:28;3.20;;;2.90;;
11761;SDS011;5938;47.098;15.474;2023-07-20T14:38:35;3.63;;;3.33;;
11761;SDS011;5938;47.098;15.474;2023-07-20T14:42:39;3.27;;;2.97;;
11761;SDS011;5938;47.098;15.474;2023-07-20T14:46:42;3.07;;;2.60;;
11761;SDS011;5938;47.098;15.474;2023-07-20T14:51:02;3.37;;;3.10;;
11761;SDS011;5938;47.098;15.474;2023-07-20T14:55:08;3.40;;;3.20;;
11761;SDS011;5938;47.098;15.474;2023-07-20T14:59:11;3.33;;;3.03;;
11761;SDS011;5938;47.098;15.474;2023-07-20T15:03:15;3.57;;;3.27;;
11761;SDS011;5938;47.098;15.474;2023-07-20T15:07:19;3.30;;;3.00;;
11761;SDS011;5938;47.098;15.474;2023-07-20T15:11:25;4.60;;;3.57;;
11761;SDS011;5938;47.098;15.474;2023-07-20T15:15:29;6.57;;;3.40;;
11761;SDS011;5938;47.098;15.474;2023-07-20T15:19:32;3.63;;;3.10;;
11761;SDS011;5938;47.098;15.474;2023-07-20T15:23:37;3.83;;;3.30;;
11761;SDS011;5938;47.098;15.474;2023-07-20T15:27:42;3.63;;;3.33;;
11761;SDS011;5938;47.098;15.474;2023-07-20T15:31:51;3.70;;;3.40;;
11761;SDS011;5938;47.098;15.474;2023-07-20T15:35:57;4.30;;;3.90;;
11761;SDS011;5938;47.098;15.474;2023-07-20T15:40:01;4.30;;;3.90;;
11761;SDS011;5938;47.098;15.474;2023-07-20T15:44:07;3.93;;;3.63;;
11761;SDS011;5938;47.098;15.474;2023-07-20T15:48:11;4.90;;;3.10;;
11761;SDS011;5938;47.098;15.474;2023-07-20T15:52:14;4.90;;;3.63;;
11761;SDS011;5938;47.098;15.474;2023-07-20T15:56:19;3.70;;;3.00;;
11761;SDS011;5938;47.098;15.474;2023-07-20T16:00:24;4.47;;;4.17;;
11761;SDS011;5938;47.098;15.474;2023-07-20T16:04:28;4.00;;;3.60;;
11761;SDS011;5938;47.098;15.474;2023-07-20T16:08:32;4.70;;;4.30;;
11761;SDS011;5938;47.098;15.474;2023-07-20T16:12:35;6.30;;;4.30;;
11761;SDS011;5938;47.098;15.474;2023-07-20T16:16:43;7.20;;;4.00;;
11761;SDS011;5938;47.098;15.474;2023-07-20T16:20:47;6.17;;;4.10;;
11761;SDS011;5938;47.098;15.474;2023-07-20T16:24:50;4.77;;;4.33;;
11761;SDS011;5938;47.098;15.474;2023-07-20T16:28:53;4.13;;;3.83;;
11761;SDS011;5938;47.098;15.474;2023-07-20T16:33:03;4.13;;;3.70;;
11761;SDS011;5938;47.098;15.474;2023-07-20T16:37:07;4.03;;;3.70;;
11761;SDS011;5938;47.098;15.474;2023-07-20T16:41:14;4.80;;;4.30;;
11761;SDS011;5938;47.098;15.474;2023-07-20T16:45:37;4.80;;;4.40;;
11761;SDS011;5938;47.098;15.474;2023-07-20T16:49:42;4.30;;;3.90;;
11761;SDS011;5938;47.098;15.474;2023-07-20T16:53:46;4.70;;;4.17;;
11761;SDS011;5938;47.098;15.474;2023-07-20T16:57:49;5.10;;;4.60;;
11761;SDS011;5938;47.098;15.474;2023-07-20T17:01:53;5.10;;;4.60;;
11761;SDS011;5938;47.098;15.474;2023-07-20T17:05:58;4.37;;;3.93;;
11761;SDS011;5938;47.098;15.474;2023-07-20T17:10:02;4.97;;;4.47;;
11761;SDS011;5938;47.098;15.474;2023-07-20T17:14:08;5.03;;;4.63;;
11761;SDS011;5938;47.098;15.474;2023-07-20T17:18:12;6.27;;;5.77;;
11761;SDS011;5938;47.098;15.474;2023-07-20T17:22:17;6.00;;;5.50;;
11761;SDS011;5938;47.098;15.474;2023-07-20T17:26:21;6.03;;;5.43;;
11761;SDS011;5938;47.098;15.474;2023-07-20T17:30:27;7.10;;;5.27;;
11761;SDS011;5938;47.098;15.474;2023-07-20T17:34:31;5.37;;;4.87;;
11761;SDS011;5938;47.098;15.474;2023-07-20T17:38:36;6.53;;;5.60;;
11761;SDS011;5938;47.098;15.474;2023-07-20T17:42:43;5.80;;;5.20;;
11761;SDS011;5938;47.098;15.474;2023-07-20T17:46:51;5.40;;;5.00;;
11761;SDS011;5938;47.098;15.474;2023-07-20T17:50:59;6.20;;;5.53;;
11761;SDS011;5938;47.098;15.474;2023-07-20T17:55:09;8.00;;;6.60;;
11761;SDS011;5938;47.098;15.474;2023-07-20T17:59:15;6.00;;;5.40;;
11761;SDS011;5938;47.098;15.474;2023-07-20T18:03:22;8.93;;;5.57;;
11761;SDS011;5938;47.098;15.474;2023-07-20T18:07:28;6.00;;;4.70;;
11761;SDS011;5938;47.098;15.474;2023-07-20T18:11:35;5.90;;;5.33;;
11761;SDS011;5938;47.098;15.474;2023-07-20T18:15:41;6.20;;;5.00;;
11761;SDS011;5938;47.098;15.474;2023-07-20T18:19:48;6.13;;;5.53;;
11761;SDS011;5938;47.098;15.474;2023-07-20T18:23:55;6.40;;;5.90;;
11761;SDS011;5938;47.098;15.474;2023-07-20T18:28:06;7.00;;;5.87;;
11761;SDS011;5938;47.098;15.474;2023-07-20T18:32:12;6.33;;;5.73;;
11761;SDS011;5938;47.098;15.474;2023-07-20T18:36:18;6.80;;;6.10;;
11761;SDS011;5938;47.098;15.474;2023-07-20T18:40:24;6.83;;;6.20;;
11761;SDS011;5938;47.098;15.474;2023-07-20T18:44:32;6.37;;;5.70;;
11761;SDS011;5938;47.098;15.474;2023-07-20T18:48:37;7.43;;;6.67;;
11761;SDS011;5938;47.098;15.474;2023-07-20T18:52:43;7.13;;;5.73;;
11761;SDS011;5938;47.098;15.474;2023-07-20T18:56:49;7.30;;;5.50;;
11761;SDS011;5938;47.098;15.474;2023-07-20T19:00:59;6.90;;;5.87;;
11761;SDS011;5938;47.098;15.474;2023-07-20T19:05:06;6.83;;;5.97;;
11761;SDS011;5938;47.098;15.474;2023-07-20T19:09:12;6.50;;;5.90;;
11761;SDS011;5938;47.098;15.474;2023-07-20T19:13:19;8.63;;;5.80;;
11761;SDS011;5938;47.098;15.474;2023-07-20T19:17:28;8.63;;;6.10;;
11761;SDS011;5938;47.098;15.474;2023-07-20T19:21:38;7.43;;;6.07;;
11761;SDS011;5938;47.098;15.474;2023-07-20T19:25:54;7.40;;;6.60;;
11761;SDS011;5938;47.098;15.474;2023-07-20T19:30:07;6.77;;;6.17;;
11761;SDS011;5938;47.098;15.474;2023-07-20T19:34:19;8.63;;;6.03;;
11761;SDS011;5938;47.098;15.474;2023-07-20T19:38:26;6.87;;;6.17;;
11761;SDS011;5938;47.098;15.474;2023-07-20T19:42:33;7.50;;;6.27;;
11761;SDS011;5938;47.098;15.474;2023-07-20T19:46:40;7.27;;;6.57;;
11761;SDS011;5938;47.098;15.474;2023-07-20T19:50:58;7.00;;;6.40;;
11761;SDS011;5938;47.098;15.474;2023-07-20T19:55:16;7.03;;;6.17;;
11761;SDS011;5938;47.098;15.474;2023-07-20T19:59:22;6.23;;;5.73;;
11761;SDS011;5938;47.098;15.474;2023-07-20T20:03:34;5.67;;;5.20;;
11761;SDS011;5938;47.098;15.474;2023-07-20T20:07:45;9.93;;;6.40;;
11761;SDS011;5938;47.098;15.474;2023-07-20T20:12:00;7.20;;;6.60;;
11761;SDS011;5938;47.098;15.474;2023-07-20T20:16:09;6.07;;;5.57;;
11761;SDS011;5938;47.098;15.474;2023-07-20T20:20:38;6.80;;;6.27;;
11761;SDS011;5938;47.098;15.474;2023-07-20T20:24:51;7.53;;;6.83;;
11761;SDS011;5938;47.098;15.474;2023-07-20T20:28:59;6.80;;;6.07;;
11761;SDS011;5938;47.098;15.474;2023-07-20T20:33:08;10.93;;;6.80;;
11761;SDS011;5938;47.098;15.474;2023-07-20T20:37:15;6.90;;;6.23;;
11761;SDS011;5938;47.098;15.474;2023-07-20T20:41:31;7.07;;;6.47;;
11761;SDS011;5938;47.098;15.474;2023-07-20T20:46:01;6.40;;;5.90;;
11761;SDS011;5938;47.098;15.474;2023-07-20T20:50:11;6.73;;;6.00;;
11761;SDS011;5938;47.098;15.474;2023-07-20T20:54:24;8.37;;;7.57;;
11761;SDS011;5938;47.098;15.474;2023-07-20T20:58:33;7.53;;;6.80;;
11761;SDS011;5938;47.098;15.474;2023-07-20T21:02:44;7.67;;;6.80;;
11761;SDS011;5938;47.098;15.474;2023-07-20T21:06:51;7.03;;;6.27;;
11761;SDS011;5938;47.098;15.474;2023-07-20T21:10:56;6.97;;;6.30;;
11761;SDS011;5938;47.098;15.474;2023-07-20T21:15:02;7.60;;;6.43;;
11761;SDS011;5938;47.098;15.474;2023-07-20T21:19:07;7.97;;;7.17;;
11761;SDS011;5938;47.098;15.474;2023-07-20T21:23:12;11.63;;;6.20;;
11761;SDS011;5938;47.098;15.474;2023-07-20T21:27:16;6.77;;;6.13;;
11761;SDS011;5938;47.098;15.474;2023-07-20T21:31:21;6.90;;;6.30;;
11761;SDS011;5938;47.098;15.474;2023-07-20T21:35:25;7.30;;;6.57;;
11761;SDS011;5938;47.098;15.474;2023-07-20T21:39:28;8.50;;;6.50;;
11761;SDS011;5938;47.098;15.474;2023-07-20T21:43:33;8.27;;;6.53;;
11761;SDS011;5938;47.098;15.474;2023-07-20T21:47:43;7.33;;;6.63;;
11761;SDS011;5938;47.098;15.474;2023-07-20T21:51:46;10.87;;;7.00;;
11761;SDS011;5938;47.098;15.474;2023-07-20T21:55:50;7.57;;;6.87;;
11761;SDS011;5938;47.098;15.474;2023-07-20T21:59:53;7.33;;;6.63;;
11761;SDS011;5938;47.098;15.474;2023-07-20T22:03:58;8.47;;;6.83;;
11761;SDS011;5938;47.098;15.474;2023-07-20T22:08:02;7.80;;;6.67;;
11761;SDS011;5938;47.098;15.474;2023-07-20T22:12:06;8.80;;;7.93;;
11761;SDS011;5938;47.098;15.474;2023-07-20T22:16:12;8.00;;;7.20;;
11761;SDS011;5938;47.098;15.474;2023-07-20T22:20:17;11.10;;;7.83;;
11761;SDS011;5938;47.098;15.474;2023-07-20T22:24:22;8.47;;;7.50;;
11761;SDS011;5938;47.098;15.474;2023-07-20T22:28:26;8.97;;;7.57;;
11761;SDS011;5938;47.098;15.474;2023-07-20T22:32:29;8.57;;;7.70;;
11761;SDS011;5938;47.098;15.474;2023-07-20T22:36:35;7.57;;;6.87;;
11761;SDS011;5938;47.098;15.474;2023-07-20T22:40:38;8.37;;;7.57;;
11761;SDS011;5938;47.098;15.474;2023-07-20T22:44:42;6.90;;;6.17;;
11761;SDS011;5938;47.098;15.474;2023-07-20T22:48:45;8.70;;;7.80;;
11761;SDS011;5938;47.098;15.474;2023-07-20T22:52:51;8.43;;;7.73;;
11761;SDS011;5938;47.098;15.474;2023-07-20T22:56:55;8.07;;;7.37;;
11761;SDS011;5938;47.098;15.474;2023-07-20T23:01:15;7.90;;;7.20;;
11761;SDS011;5938;47.098;15.474;2023-07-20T23:05:27;7.97;;;7.27;;
11761;SDS011;5938;47.098;15.474;2023-07-20T23:09:34;7.60;;;7.00;;
11761;SDS011;5938;47.098;15.474;2023-07-20T23:13:38;9.77;;;8.30;;
11761;SDS011;5938;47.098;15.474;2023-07-20T23:17:43;10.10;;;7.77;;
11761;SDS011;5938;47.098;15.474;2023-07-20T23:21:49;9.43;;;8.50;;
11761;SDS011;5938;47.098;15.474;2023-07-20T23:25:55;10.17;;;8.13;;
11761;SDS011;5938;47.098;15.474;2023-07-20T23:29:59;10.67;;;9.60;;
11761;SDS011;5938;47.098;15.474;2023-07-20T23:34:02;10.03;;;7.73;;
11761;SDS011;5938;47.098;15.474;2023-07-20T23:38:08;9.30;;;8.30;;
11761;SDS011;5938;47.098;15.474;2023-07-20T23:42:14;8.80;;;8.00;;
11761;SDS011;5938;47.098;15.474;2023-07-20T23:46:17;7.43;;;6.67;;
11761;SDS011;5938;47.098;15.474;2023-07-20T23:50:25;8.63;;;7.20;;
11761;SDS011;5938;47.098;15.474;2023-07-20T23:54:29;7.40;;;6.70;;
11761;SDS011;5938;47.098;15.474;2023-07-20T23:58:34;8.43;;;7.50;;
